Time;durP1;ratioP1;P1;durP2;ratioP2;P2;SDS_P1;SDS_P2;PMS_P1;PMS_P2;Temp;Humidity;BMP_temperature;BMP_pressure;BME280_temperature;BME280_humidity;BME280_pressure;Samples;Min_cycle;Max_cycle;Signal;HPM_P1;HPM_P2
2019/08/05 00:02:09;;;;;;;4.69;4.29;;;;;;;23.17;55.79;100258.05;;;;-52
2019/08/05 00:05:09;;;;;;;5.07;4.05;;;;;;;23.16;55.77;100254.48;;;;-61
2019/08/05 00:08:09;;;;;;;4.43;4.03;;;;;;;23.16;55.76;100256.84;;;;-61
2019/08/05 00:11:09;;;;;;;4.65;4.09;;;;;;;23.17;55.74;100256.94;;;;-61
2019/08/05 00:14:09;;;;;;;4.37;3.97;;;;;;;23.15;55.76;100249.73;;;;-61
2019/08/05 00:17:09;;;;;;;4.95;4.45;;;;;;;23.15;55.70;100245.86;;;;-61
2019/08/05 00:20:09;;;;;;;5.25;4.11;;;;;;;23.15;55.74;100244.61;;;;-61
2019/08/05 00:23:09;;;;;;;5.85;4.15;;;;;;;23.15;55.71;100241.98;;;;-60
2019/08/05 00:26:10;;;;;;;4.46;4.06;;;;;;;23.14;55.69;100237.75;;;;-61
2019/08/05 00:29:09;;;;;;;4.60;4.18;;;;;;;23.14;55.72;100236.16;;;;-52
2019/08/05 00:32:09;;;;;;;4.40;3.99;;;;;;;23.15;55.73;100236.43;;;;-52
2019/08/05 00:35:09;;;;;;;4.62;4.16;;;;;;;23.14;55.71;100237.84;;;;-61
2019/08/05 00:38:09;;;;;;;4.68;4.18;;;;;;;23.14;55.72;100238.25;;;;-61
2019/08/05 00:41:09;;;;;;;4.45;4.05;;;;;;;23.13;55.68;100239.91;;;;-52
2019/08/05 00:44:09;;;;;;;4.53;4.11;;;;;;;23.14;55.73;100249.38;;;;-61
2019/08/05 00:47:09;;;;;;;4.66;4.07;;;;;;;23.14;55.70;100254.66;;;;-51
2019/08/05 00:50:09;;;;;;;4.58;3.89;;;;;;;23.13;55.76;100256.59;;;;-61
2019/08/05 00:53:09;;;;;;;5.64;4.21;;;;;;;23.13;55.72;100253.97;;;;-61
2019/08/05 00:56:09;;;;;;;4.57;4.17;;;;;;;23.12;55.72;100255.72;;;;-61
2019/08/05 00:59:09;;;;;;;4.35;3.89;;;;;;;23.13;55.73;100248.61;;;;-53
2019/08/05 01:02:09;;;;;;;4.44;4.04;;;;;;;23.13;55.73;100249.41;;;;-52
2019/08/05 01:05:09;;;;;;;4.51;4.11;;;;;;;23.13;55.74;100247.90;;;;-52
2019/08/05 01:08:09;;;;;;;4.08;3.71;;;;;;;23.13;55.71;100245.64;;;;-51
2019/08/05 01:11:09;;;;;;;4.43;3.73;;;;;;;23.13;55.67;100243.19;;;;-53
2019/08/05 01:14:09;;;;;;;4.20;3.80;;;;;;;23.11;55.69;100240.20;;;;-61
2019/08/05 01:17:09;;;;;;;4.25;3.85;;;;;;;23.11;55.71;100238.25;;;;-54
2019/08/05 01:20:09;;;;;;;4.26;3.86;;;;;;;23.12;55.66;100238.14;;;;-60
2019/08/05 01:23:09;;;;;;;4.41;3.96;;;;;;;23.11;55.70;100236.32;;;;-61
2019/08/05 01:26:09;;;;;;;4.29;3.85;;;;;;;23.11;55.69;100237.60;;;;-61
2019/08/05 01:29:09;;;;;;;4.44;3.88;;;;;;;23.11;55.72;100237.84;;;;-61
2019/08/05 01:32:09;;;;;;;4.20;3.80;;;;;;;23.10;55.68;100237.41;;;;-52
2019/08/05 01:35:09;;;;;;;4.91;3.90;;;;;;;23.11;55.72;100239.42;;;;-61
2019/08/05 01:38:09;;;;;;;4.37;3.99;;;;;;;23.10;55.68;100239.66;;;;-60
2019/08/05 01:41:13;;;;;;;4.29;3.89;;;;;;;23.10;55.69;100237.37;;;;-61
2019/08/05 01:49:09;;;;;;;4.02;3.69;;;;;;;23.10;55.69;100233.59;;;;-61
2019/08/05 01:52:09;;;;;;;4.30;3.90;;;;;;;23.09;55.70;100226.36;;;;-61
2019/08/05 01:55:09;;;;;;;4.17;3.77;;;;;;;23.09;55.66;100223.03;;;;-51
2019/08/05 01:58:09;;;;;;;4.09;3.69;;;;;;;23.08;55.71;100220.44;;;;-52
2019/08/05 02:01:09;;;;;;;3.86;3.56;;;;;;;23.09;55.71;100223.84;;;;-61
2019/08/05 02:04:10;;;;;;;4.07;3.67;;;;;;;23.08;55.68;100215.72;;;;-52
2019/08/05 02:07:09;;;;;;;4.03;3.65;;;;;;;23.09;55.68;100210.40;;;;-61
2019/08/05 02:10:10;;;;;;;4.09;3.79;;;;;;;23.08;55.67;100211.17;;;;-61
2019/08/05 02:13:09;;;;;;;4.11;3.71;;;;;;;23.08;55.65;100205.92;;;;-61
2019/08/05 02:16:10;;;;;;;4.11;3.71;;;;;;;23.08;55.68;100204.67;;;;-61
2019/08/05 02:19:09;;;;;;;3.94;3.57;;;;;;;23.08;55.68;100200.97;;;;-61
2019/08/05 02:22:10;;;;;;;4.11;3.74;;;;;;;23.08;55.69;100200.47;;;;-61
2019/08/05 02:25:09;;;;;;;4.05;3.68;;;;;;;23.07;55.66;100206.13;;;;-51
2019/08/05 02:28:09;;;;;;;4.13;3.73;;;;;;;23.07;55.68;100204.11;;;;-52
2019/08/05 02:31:09;;;;;;;4.01;3.67;;;;;;;23.08;55.67;100206.16;;;;-61
2019/08/05 02:34:09;;;;;;;4.27;3.80;;;;;;;23.07;55.69;100207.14;;;;-60
2019/08/05 02:37:09;;;;;;;4.09;3.43;;;;;;;23.07;55.72;100205.97;;;;-60
2019/08/05 02:40:10;;;;;;;3.87;3.57;;;;;;;23.07;55.71;100197.38;;;;-51
2019/08/05 02:43:09;;;;;;;3.76;3.46;;;;;;;23.07;55.68;100199.80;;;;-52
2019/08/05 02:46:09;;;;;;;4.04;3.63;;;;;;;23.07;55.66;100200.20;;;;-52
2019/08/05 02:49:09;;;;;;;3.89;3.59;;;;;;;23.06;55.68;100210.92;;;;-61
2019/08/05 02:52:09;;;;;;;3.79;3.49;;;;;;;23.07;55.68;100217.42;;;;-52
2019/08/05 02:55:09;;;;;;;4.03;3.63;;;;;;;23.06;55.65;100212.17;;;;-61
2019/08/05 03:01:10;;;;;;;3.74;3.40;;;;;;;23.06;55.67;100218.98;;;;-61
2019/08/05 03:04:09;;;;;;;3.80;3.50;;;;;;;23.06;55.70;100226.22;;;;-52
2019/08/05 03:07:09;;;;;;;3.52;3.22;;;;;;;23.06;55.66;100222.42;;;;-53
2019/08/05 03:10:10;;;;;;;3.88;3.58;;;;;;;23.05;55.70;100217.64;;;;-52
2019/08/05 03:13:09;;;;;;;3.73;3.43;;;;;;;23.05;55.67;100219.39;;;;-61
2019/08/05 03:16:09;;;;;;;3.69;3.39;;;;;;;23.06;55.69;100224.61;;;;-52
2019/08/05 03:19:09;;;;;;;3.57;3.27;;;;;;;23.06;55.67;100220.73;;;;-53
2019/08/05 03:22:09;;;;;;;3.94;3.59;;;;;;;23.05;55.67;100221.41;;;;-52
2019/08/05 03:25:10;;;;;;;3.78;3.48;;;;;;;23.05;55.69;100216.02;;;;-52
2019/08/05 03:28:10;;;;;;;3.83;3.53;;;;;;;23.05;55.65;100213.39;;;;-52
2019/08/05 03:31:09;;;;;;;3.73;3.43;;;;;;;23.04;55.68;100204.13;;;;-51
2019/08/05 03:34:23;;;;;;;4.01;3.45;;;;;;;23.05;55.65;100203.70;;;;-61
2019/08/05 03:37:10;;;;;;;3.81;3.51;;;;;;;23.05;55.66;100206.75;;;;-52
2019/08/05 03:40:09;;;;;;;3.79;3.49;;;;;;;23.04;55.68;100207.00;;;;-52
2019/08/05 03:43:10;;;;;;;5.17;4.57;;;;;;;22.90;52.00;100202.15;;;;-52
2019/08/05 03:46:09;;;;;;;5.45;4.88;;;;;;;22.72;51.21;100199.78;;;;-61
2019/08/05 03:49:09;;;;;;;5.82;5.17;;;;;;;22.62;50.66;100197.33;;;;-53
2019/08/05 03:52:10;;;;;;;6.70;5.26;;;;;;;22.51;50.72;100194.26;;;;-51
2019/08/05 03:55:10;;;;;;;6.29;5.45;;;;;;;22.46;50.75;100193.08;;;;-60
2019/08/05 03:58:12;;;;;;;5.99;5.34;;;;;;;22.41;50.72;100202.56;;;;-61
2019/08/05 04:01:09;;;;;;;5.78;5.28;;;;;;;22.38;51.10;100207.02;;;;-59
2019/08/05 04:04:09;;;;;;;5.36;4.86;;;;;;;22.35;51.21;100212.82;;;;-53
2019/08/05 04:07:10;;;;;;;5.78;5.21;;;;;;;22.31;51.08;100202.91;;;;-61
2019/08/05 04:10:09;;;;;;;5.51;5.01;;;;;;;22.36;51.32;100210.39;;;;-52
2019/08/05 04:13:09;;;;;;;6.87;5.33;;;;;;;22.43;51.47;100208.84;;;;-61
2019/08/05 04:16:10;;;;;;;7.32;5.11;;;;;;;22.40;51.26;100211.02;;;;-61
2019/08/05 04:19:10;;;;;;;5.64;5.14;;;;;;;22.33;51.20;100200.69;;;;-61
2019/08/05 04:22:10;;;;;;;5.49;4.97;;;;;;;22.27;50.90;100193.64;;;;-61
2019/08/05 04:25:09;;;;;;;5.79;5.19;;;;;;;22.24;50.96;100198.91;;;;-61
2019/08/05 04:28:09;;;;;;;6.68;5.59;;;;;;;22.21;51.15;100214.43;;;;-58
2019/08/05 04:31:10;;;;;;;8.27;5.09;;;;;;;22.23;51.28;100223.04;;;;-59
2019/08/05 04:34:10;;;;;;;6.21;5.37;;;;;;;22.22;51.30;100228.89;;;;-58
2019/08/05 04:37:09;;;;;;;6.50;5.35;;;;;;;22.20;51.19;100230.02;;;;-57
2019/08/05 04:40:10;;;;;;;5.79;5.22;;;;;;;22.20;51.45;100237.61;;;;-59
2019/08/05 04:43:09;;;;;;;5.71;5.11;;;;;;;22.26;51.63;100232.38;;;;-59
2019/08/05 04:46:09;;;;;;;6.77;5.40;;;;;;;22.33;51.89;100239.98;;;;-55
2019/08/05 04:49:09;;;;;;;8.74;5.16;;;;;;;22.40;52.14;100250.39;;;;-54
2019/08/05 04:52:10;;;;;;;7.41;5.29;;;;;;;22.46;52.35;100244.17;;;;-49
2019/08/05 04:55:09;;;;;;;7.93;5.35;;;;;;;22.51;52.43;100243.64;;;;-51
2019/08/05 04:58:09;;;;;;;7.82;5.31;;;;;;;22.53;52.42;100251.06;;;;-51
2019/08/05 05:01:10;;;;;;;9.33;5.30;;;;;;;22.55;52.57;100263.11;;;;-59
2019/08/05 05:04:09;;;;;;;6.43;5.07;;;;;;;22.57;52.66;100262.05;;;;-59
2019/08/05 05:07:09;;;;;;;7.34;5.09;;;;;;;22.58;52.71;100253.43;;;;-52
2019/08/05 05:10:10;;;;;;;6.19;5.14;;;;;;;22.59;52.72;100254.37;;;;-52
2019/08/05 05:13:10;;;;;;;7.15;5.38;;;;;;;22.63;52.76;100282.49;;;;-52
2019/08/05 05:16:10;;;;;;;7.10;4.80;;;;;;;22.64;52.86;100289.36;;;;-60
2019/08/05 05:19:09;;;;;;;8.13;4.99;;;;;;;22.64;52.89;100277.57;;;;-59
2019/08/05 05:22:09;;;;;;;6.86;4.77;;;;;;;22.65;52.93;100269.09;;;;-60
2019/08/05 05:25:09;;;;;;;6.66;5.03;;;;;;;22.67;52.97;100276.05;;;;-59
2019/08/05 05:28:09;;;;;;;5.57;5.03;;;;;;;22.67;53.03;100280.25;;;;-58
2019/08/05 05:31:09;;;;;;;6.53;5.13;;;;;;;22.67;53.06;100288.43;;;;-52
2019/08/05 05:34:18;;;;;;;7.61;5.15;;;;;;;22.68;53.15;100287.69;;;;-52
2019/08/05 05:37:13;;;;;;;6.49;4.98;;;;;;;22.69;53.14;100280.48;;;;-59
2019/08/05 05:40:09;;;;;;;6.13;4.91;;;;;;;22.69;53.18;100276.80;;;;-59
2019/08/05 05:43:09;;;;;;;5.26;4.75;;;;;;;22.70;53.24;100267.48;;;;-52
2019/08/05 05:46:10;;;;;;;7.39;5.09;;;;;;;22.70;53.27;100266.73;;;;-51
2019/08/05 05:49:10;;;;;;;7.03;4.92;;;;;;;22.70;53.32;100271.85;;;;-52
2019/08/05 05:52:09;;;;;;;5.37;4.67;;;;;;;22.71;53.35;100270.33;;;;-51
2019/08/05 05:55:09;;;;;;;7.59;4.91;;;;;;;22.72;53.39;100272.98;;;;-51
2019/08/05 05:58:09;;;;;;;5.24;4.77;;;;;;;22.72;53.38;100264.91;;;;-51
2019/08/05 06:01:09;;;;;;;5.67;4.81;;;;;;;22.72;53.40;100254.23;;;;-52
2019/08/05 06:04:09;;;;;;;5.87;4.93;;;;;;;22.72;53.47;100239.24;;;;-52
2019/08/05 06:07:09;;;;;;;5.69;4.61;;;;;;;22.73;53.46;100252.81;;;;-58
2019/08/05 06:10:09;;;;;;;5.65;4.80;;;;;;;22.73;53.48;100284.39;;;;-59
2019/08/05 06:13:09;;;;;;;4.99;4.49;;;;;;;22.73;53.51;100287.69;;;;-51
2019/08/05 06:16:09;;;;;;;5.08;4.50;;;;;;;22.74;53.55;100292.77;;;;-60
2019/08/05 06:19:09;;;;;;;5.10;4.60;;;;;;;22.73;53.59;100281.27;;;;-52
2019/08/05 06:22:09;;;;;;;6.07;4.75;;;;;;;22.75;53.58;100288.46;;;;-59
2019/08/05 06:25:09;;;;;;;5.07;4.58;;;;;;;22.75;53.57;100287.14;;;;-59
2019/08/05 06:28:09;;;;;;;4.64;4.24;;;;;;;22.75;53.62;100292.43;;;;-59
2019/08/05 06:31:09;;;;;;;4.67;4.27;;;;;;;22.75;53.63;100293.55;;;;-59
2019/08/05 06:34:10;;;;;;;4.78;4.29;;;;;;;22.75;53.66;100289.60;;;;-59
2019/08/05 06:37:10;;;;;;;5.29;4.75;;;;;;;22.74;53.78;100293.95;;;;-59
2019/08/05 06:40:09;;;;;;;5.41;4.45;;;;;;;22.77;53.90;100292.42;;;;-59
2019/08/05 06:43:09;;;;;;;6.93;4.86;;;;;;;22.78;53.86;100287.97;;;;-58
2019/08/05 06:46:09;;;;;;;4.42;4.06;;;;;;;22.80;53.85;100288.53;;;;-58
2019/08/05 06:49:09;;;;;;;5.43;4.54;;;;;;;22.82;53.98;100283.80;;;;-52
2019/08/05 06:52:09;;;;;;;4.71;4.25;;;;;;;22.84;54.06;100291.67;;;;-50
2019/08/05 06:55:09;;;;;;;6.85;4.80;;;;;;;22.86;54.07;100290.89;;;;-59
2019/08/05 06:58:09;;;;;;;5.22;4.39;;;;;;;22.88;54.17;100289.16;;;;-54
2019/08/05 07:01:09;;;;;;;6.11;4.41;;;;;;;22.89;54.31;100283.90;;;;-58
2019/08/05 07:04:10;;;;;;;4.83;4.39;;;;;;;22.91;54.38;100259.27;;;;-57
2019/08/05 07:07:09;;;;;;;5.77;4.61;;;;;;;22.92;54.45;100256.36;;;;-57
2019/08/05 07:10:09;;;;;;;6.03;4.37;;;;;;;22.94;54.46;100274.77;;;;-60
2019/08/05 07:13:09;;;;;;;4.91;4.27;;;;;;;22.96;54.56;100274.83;;;;-52
2019/08/05 07:16:09;;;;;;;5.00;4.28;;;;;;;22.97;54.54;100267.45;;;;-57
2019/08/05 07:19:09;;;;;;;5.99;4.19;;;;;;;22.99;54.54;100263.77;;;;-62
2019/08/05 07:22:09;;;;;;;11.05;4.63;;;;;;;22.99;54.40;100274.71;;;;-60
2019/08/05 07:25:09;;;;;;;5.32;4.19;;;;;;;22.99;54.57;100278.35;;;;-52
2019/08/05 07:28:09;;;;;;;4.83;4.27;;;;;;;23.00;54.64;100276.19;;;;-53
2019/08/05 07:31:09;;;;;;;6.08;3.88;;;;;;;22.97;54.50;100270.31;;;;-52
2019/08/05 07:34:10;;;;;;;5.15;4.32;;;;;;;22.98;54.58;100273.67;;;;-60
2019/08/05 07:37:09;;;;;;;4.67;4.23;;;;;;;22.98;54.47;100285.06;;;;-60
2019/08/05 07:40:09;;;;;;;4.83;4.27;;;;;;;22.98;54.49;100287.75;;;;-59
2019/08/05 07:43:09;;;;;;;5.12;3.99;;;;;;;22.98;54.48;100286.00;;;;-53
2019/08/05 07:46:10;;;;;;;4.69;4.11;;;;;;;22.99;54.45;100287.11;;;;-62
2019/08/05 07:49:32;;;;;;;4.88;4.23;;;;;;;22.99;54.43;100286.77;;;;-52
2019/08/05 07:55:09;;;;;;;8.01;4.15;;;;;;;22.99;54.48;100295.13;;;;-62
2019/08/05 07:58:09;;;;;;;4.37;3.99;;;;;;;23.00;54.39;100301.95;;;;-61
2019/08/05 08:01:09;;;;;;;5.29;3.85;;;;;;;23.00;54.37;100295.22;;;;-61
2019/08/05 08:04:10;;;;;;;4.44;4.04;;;;;;;22.99;54.38;100290.74;;;;-62
2019/08/05 08:07:09;;;;;;;4.40;4.00;;;;;;;22.99;54.36;100290.91;;;;-61
2019/08/05 08:10:09;;;;;;;9.43;4.23;;;;;;;22.98;54.45;100287.59;;;;-61
2019/08/05 08:13:09;;;;;;;4.42;4.02;;;;;;;23.00;54.48;100277.36;;;;-61
2019/08/05 08:16:09;;;;;;;4.31;3.90;;;;;;;23.03;54.58;100273.88;;;;-61
2019/08/05 08:19:09;;;;;;;5.62;4.00;;;;;;;23.04;54.63;100276.53;;;;-61
2019/08/05 08:22:10;;;;;;;6.79;4.01;;;;;;;23.05;54.63;100274.03;;;;-58
2019/08/05 08:25:09;;;;;;;5.73;4.01;;;;;;;23.06;54.71;100281.67;;;;-60
2019/08/05 08:28:10;;;;;;;4.31;3.91;;;;;;;23.04;54.58;100280.17;;;;-52
2019/08/05 08:31:09;;;;;;;5.10;3.99;;;;;;;23.04;54.64;100277.55;;;;-59
2019/08/05 08:34:09;;;;;;;6.15;3.89;;;;;;;23.04;54.64;100280.67;;;;-53
2019/08/05 08:37:09;;;;;;;7.71;4.03;;;;;;;23.03;54.65;100278.72;;;;-52
2019/08/05 08:40:10;;;;;;;6.95;4.15;;;;;;;23.03;54.63;100282.73;;;;-59
2019/08/05 08:43:09;;;;;;;4.08;3.71;;;;;;;23.02;54.67;100277.59;;;;-58
2019/08/05 08:46:09;;;;;;;7.39;3.78;;;;;;;23.02;54.61;100283.31;;;;-59
2019/08/05 08:49:10;;;;;;;4.49;4.09;;;;;;;23.01;54.61;100282.45;;;;-59
2019/08/05 08:52:09;;;;;;;5.33;3.91;;;;;;;23.01;54.59;100271.83;;;;-60
2019/08/05 08:55:09;;;;;;;5.73;3.93;;;;;;;23.01;54.60;100266.17;;;;-59
2019/08/05 08:58:09;;;;;;;7.61;3.93;;;;;;;23.01;54.59;100264.59;;;;-59
2019/08/05 09:01:09;;;;;;;4.43;3.65;;;;;;;23.00;54.59;100258.50;;;;-60
2019/08/05 09:04:09;;;;;;;5.42;3.87;;;;;;;23.00;54.54;100253.11;;;;-52
2019/08/05 09:07:09;;;;;;;4.56;3.63;;;;;;;22.99;54.63;100236.58;;;;-52
2019/08/05 09:10:09;;;;;;;3.99;3.59;;;;;;;23.00;54.59;100229.70;;;;-52
2019/08/05 09:13:09;;;;;;;4.19;3.79;;;;;;;22.99;54.59;100221.59;;;;-60
2019/08/05 09:16:09;;;;;;;4.19;3.67;;;;;;;23.00;54.70;100219.09;;;;-52
2019/08/05 09:19:09;;;;;;;12.08;3.95;;;;;;;23.01;55.07;100218.01;;;;-50
2019/08/05 09:22:09;;;;;;;11.19;3.92;;;;;;;23.02;55.29;100222.58;;;;-49
2019/08/05 09:25:09;;;;;;;9.44;3.95;;;;;;;23.03;55.25;100221.09;;;;-50
2019/08/05 09:28:09;;;;;;;7.19;4.04;;;;;;;23.05;55.42;100218.69;;;;-52
2019/08/05 09:31:09;;;;;;;7.72;3.98;;;;;;;23.07;55.42;100212.67;;;;-49
2019/08/05 09:34:09;;;;;;;6.29;3.93;;;;;;;23.08;55.59;100209.70;;;;-50
2019/08/05 09:37:09;;;;;;;9.77;4.07;;;;;;;23.10;55.53;100211.47;;;;-48
2019/08/05 09:40:09;;;;;;;12.48;3.89;;;;;;;23.12;55.67;100207.38;;;;-52
2019/08/05 09:43:10;;;;;;;6.24;3.71;;;;;;;23.13;55.61;100206.99;;;;-58
2019/08/05 09:46:09;;;;;;;8.48;3.85;;;;;;;23.14;55.68;100196.74;;;;-58
2019/08/05 09:49:09;;;;;;;8.59;3.87;;;;;;;23.15;55.61;100189.42;;;;-51
2019/08/05 09:52:09;;;;;;;5.83;3.69;;;;;;;23.15;55.55;100189.59;;;;-52
2019/08/05 09:55:09;;;;;;;5.11;3.87;;;;;;;23.16;55.68;100189.28;;;;-55
2019/08/05 09:58:09;;;;;;;8.04;3.83;;;;;;;23.17;55.57;100187.05;;;;-50
2019/08/05 10:01:21;;;;;;;8.13;3.83;;;;;;;23.18;55.60;100188.89;;;;-55
2019/08/05 10:04:12;;;;;;;4.42;3.81;;;;;;;23.18;55.67;100183.94;;;;-58
2019/08/05 10:07:10;;;;;;;4.88;3.59;;;;;;;23.19;55.71;100186.33;;;;-51
2019/08/05 10:10:09;;;;;;;6.97;3.85;;;;;;;23.19;55.56;100181.84;;;;-60
2019/08/05 10:13:09;;;;;;;4.06;3.65;;;;;;;23.19;55.32;100186.83;;;;-52
2019/08/05 10:16:10;;;;;;;7.72;3.70;;;;;;;23.19;55.34;100184.20;;;;-60
2019/08/05 10:19:09;;;;;;;8.17;3.76;;;;;;;23.18;55.28;100181.25;;;;-60
2019/08/05 10:22:10;;;;;;;6.65;3.70;;;;;;;23.18;55.26;100184.18;;;;-61
2019/08/05 10:25:09;;;;;;;7.72;3.66;;;;;;;23.17;55.22;100175.77;;;;-60
2019/08/05 10:28:09;;;;;;;4.78;3.61;;;;;;;23.17;55.23;100172.30;;;;-60
2019/08/05 10:31:09;;;;;;;4.91;3.50;;;;;;;23.16;55.16;100166.20;;;;-60
2019/08/05 10:34:09;;;;;;;5.87;3.69;;;;;;;23.15;55.15;100163.58;;;;-61
2019/08/05 10:37:09;;;;;;;7.23;3.71;;;;;;;23.15;55.17;100167.96;;;;-60
2019/08/05 10:40:09;;;;;;;4.83;3.66;;;;;;;23.15;55.14;100166.59;;;;-60
2019/08/05 10:43:09;;;;;;;6.41;3.74;;;;;;;23.14;55.14;100168.27;;;;-61
2019/08/05 10:46:09;;;;;;;5.53;3.47;;;;;;;23.14;55.10;100162.52;;;;-60
2019/08/05 10:49:09;;;;;;;4.32;3.57;;;;;;;23.13;55.07;100160.56;;;;-51
2019/08/05 10:52:10;;;;;;;5.60;3.95;;;;;;;23.13;55.07;100157.53;;;;-52
2019/08/05 10:55:09;;;;;;;7.36;3.63;;;;;;;23.12;55.09;100151.11;;;;-60
2019/08/05 10:58:09;;;;;;;3.96;3.57;;;;;;;23.13;55.06;100145.17;;;;-51
2019/08/05 11:01:10;;;;;;;8.72;3.39;;;;;;;23.13;55.00;100146.48;;;;-60
2019/08/05 11:04:09;;;;;;;5.04;3.51;;;;;;;23.12;55.06;100140.77;;;;-52
2019/08/05 11:07:09;;;;;;;3.90;3.55;;;;;;;23.12;55.02;100131.73;;;;-60
2019/08/05 11:10:09;;;;;;;5.25;3.50;;;;;;;23.11;55.00;100123.39;;;;-53
2019/08/05 11:13:09;;;;;;;3.80;3.32;;;;;;;23.10;55.02;100125.79;;;;-52
2019/08/05 11:16:09;;;;;;;5.19;3.57;;;;;;;23.11;54.99;100114.97;;;;-52
2019/08/05 11:19:10;;;;;;;4.49;3.64;;;;;;;23.10;55.01;100104.84;;;;-60
2019/08/05 11:22:09;;;;;;;3.85;3.33;;;;;;;23.10;55.02;100113.83;;;;-51
2019/08/05 11:25:09;;;;;;;4.45;3.40;;;;;;;23.10;54.95;100103.83;;;;-60
2019/08/05 11:28:09;;;;;;;3.95;3.50;;;;;;;23.09;54.92;100107.75;;;;-60
2019/08/05 11:31:09;;;;;;;5.10;3.32;;;;;;;23.09;54.96;100104.58;;;;-52
2019/08/05 11:34:10;;;;;;;3.82;3.42;;;;;;;23.09;54.97;100095.89;;;;-61
2019/08/05 11:37:09;;;;;;;4.21;3.53;;;;;;;23.09;54.94;100088.61;;;;-60
2019/08/05 11:40:10;;;;;;;3.77;3.47;;;;;;;23.08;54.96;100080.30;;;;-52
2019/08/05 11:43:09;;;;;;;3.57;3.27;;;;;;;23.08;54.96;100087.03;;;;-52
2019/08/05 11:46:09;;;;;;;4.73;3.36;;;;;;;23.08;54.97;100085.08;;;;-60
2019/08/05 11:49:09;;;;;;;7.26;3.23;;;;;;;23.08;54.96;100081.18;;;;-52
2019/08/05 11:52:09;;;;;;;3.67;3.37;;;;;;;23.08;54.96;100081.85;;;;-60
2019/08/05 11:55:09;;;;;;;4.17;3.19;;;;;;;23.07;54.98;100080.95;;;;-52
2019/08/05 11:58:10;;;;;;;4.05;3.30;;;;;;;23.08;54.94;100082.02;;;;-52
2019/08/05 12:01:09;;;;;;;4.40;3.33;;;;;;;23.08;54.92;100081.69;;;;-60
2019/08/05 12:04:09;;;;;;;3.52;3.11;;;;;;;23.07;54.94;100081.83;;;;-60
2019/08/05 12:07:09;;;;;;;3.90;3.27;;;;;;;23.07;54.89;100084.59;;;;-51
2019/08/05 12:10:09;;;;;;;4.83;3.57;;;;;;;23.07;54.94;100084.86;;;;-52
2019/08/05 12:13:09;;;;;;;3.78;3.41;;;;;;;23.07;54.90;100089.03;;;;-60
2019/08/05 12:16:10;;;;;;;4.00;3.36;;;;;;;23.06;54.92;100085.44;;;;-52
2019/08/05 12:19:10;;;;;;;3.75;3.45;;;;;;;23.05;54.93;100080.70;;;;-60
2019/08/05 12:22:09;;;;;;;3.51;3.01;;;;;;;23.06;54.92;100082.41;;;;-60
2019/08/05 12:25:09;;;;;;;4.31;3.37;;;;;;;23.06;54.92;100072.44;;;;-52
2019/08/05 12:28:09;;;;;;;4.71;3.27;;;;;;;23.06;54.92;100071.86;;;;-60
2019/08/05 12:31:09;;;;;;;3.57;3.27;;;;;;;23.06;54.95;100064.11;;;;-51
2019/08/05 12:34:09;;;;;;;6.69;3.37;;;;;;;23.05;54.92;100061.33;;;;-51
2019/08/05 12:37:09;;;;;;;3.85;3.07;;;;;;;23.06;54.89;100059.12;;;;-52
2019/08/05 12:40:09;;;;;;;3.55;3.25;;;;;;;23.05;54.91;100058.13;;;;-51
2019/08/05 12:43:09;;;;;;;3.58;3.28;;;;;;;23.06;54.93;100060.05;;;;-52
2019/08/05 12:46:09;;;;;;;3.35;3.08;;;;;;;23.05;54.90;100056.10;;;;-61
2019/08/05 12:49:09;;;;;;;4.90;3.36;;;;;;;23.05;54.92;100051.05;;;;-52
2019/08/05 12:52:10;;;;;;;3.57;3.12;;;;;;;23.05;54.92;100046.74;;;;-52
2019/08/05 12:55:09;;;;;;;3.91;3.27;;;;;;;23.05;54.91;100039.16;;;;-61
2019/08/05 12:58:09;;;;;;;3.37;2.84;;;;;;;23.05;54.91;100049.20;;;;-52
2019/08/05 13:01:09;;;;;;;4.36;3.21;;;;;;;23.05;54.93;100047.31;;;;-52
2019/08/05 13:04:09;;;;;;;3.31;3.04;;;;;;;23.05;54.92;100042.27;;;;-60
2019/08/05 13:07:09;;;;;;;4.06;3.22;;;;;;;23.05;54.91;100043.38;;;;-60
2019/08/05 13:10:09;;;;;;;3.28;2.98;;;;;;;23.05;54.92;100048.09;;;;-51
2019/08/05 13:13:09;;;;;;;3.67;3.21;;;;;;;23.05;54.92;100048.56;;;;-61
2019/08/05 13:16:09;;;;;;;3.23;2.94;;;;;;;23.05;54.92;100039.47;;;;-52
2019/08/05 13:19:09;;;;;;;4.43;3.31;;;;;;;23.04;54.93;100048.67;;;;-60
2019/08/05 13:22:09;;;;;;;3.53;3.01;;;;;;;23.04;54.91;100037.69;;;;-60
2019/08/05 13:25:09;;;;;;;3.61;3.19;;;;;;;23.04;54.90;100036.34;;;;-51
2019/08/05 13:28:09;;;;;;;3.37;3.07;;;;;;;23.03;54.97;100034.33;;;;-60
2019/08/05 13:31:09;;;;;;;3.33;3.00;;;;;;;23.03;54.91;100032.55;;;;-60
2019/08/05 13:34:09;;;;;;;3.44;3.14;;;;;;;23.04;54.94;100031.36;;;;-60
2019/08/05 13:37:10;;;;;;;3.67;3.03;;;;;;;23.04;54.95;100037.42;;;;-60
2019/08/05 13:40:09;;;;;;;3.17;2.89;;;;;;;23.04;54.92;100043.69;;;;-52
2019/08/05 13:43:09;;;;;;;4.06;2.93;;;;;;;23.04;54.92;100037.59;;;;-52
2019/08/05 13:46:09;;;;;;;3.28;2.86;;;;;;;23.04;54.94;100034.90;;;;-52
2019/08/05 13:49:09;;;;;;;3.42;3.12;;;;;;;23.04;54.93;100031.30;;;;-52
2019/08/05 13:52:09;;;;;;;3.41;3.07;;;;;;;23.03;54.94;100030.12;;;;-52
2019/08/05 13:55:09;;;;;;;3.33;3.03;;;;;;;23.03;54.93;100030.45;;;;-60
2019/08/05 13:58:09;;;;;;;3.30;2.96;;;;;;;23.03;54.98;100033.87;;;;-60
2019/08/05 14:01:09;;;;;;;3.98;3.11;;;;;;;23.03;54.96;100030.79;;;;-60
2019/08/05 14:04:09;;;;;;;3.02;2.82;;;;;;;23.03;54.92;100024.46;;;;-53
2019/08/05 14:07:09;;;;;;;3.32;3.01;;;;;;;23.02;54.98;100019.22;;;;-52
2019/08/05 14:10:09;;;;;;;4.33;2.91;;;;;;;23.03;54.96;100016.78;;;;-52
2019/08/05 14:13:09;;;;;;;3.32;3.02;;;;;;;23.03;54.95;100012.14;;;;-60
2019/08/05 14:16:09;;;;;;;3.21;2.91;;;;;;;23.02;54.96;100021.58;;;;-52
2019/08/05 14:19:09;;;;;;;3.27;2.97;;;;;;;23.02;54.95;100017.09;;;;-53
2019/08/05 14:22:09;;;;;;;3.90;3.07;;;;;;;23.02;54.96;100016.59;;;;-51
2019/08/05 14:25:09;;;;;;;3.47;2.89;;;;;;;23.01;54.95;100022.33;;;;-51
2019/08/05 14:28:09;;;;;;;3.19;2.85;;;;;;;23.02;55.00;100021.98;;;;-61
2019/08/05 14:31:09;;;;;;;3.29;2.98;;;;;;;23.02;54.97;100016.70;;;;-51
2019/08/05 14:34:09;;;;;;;3.15;2.85;;;;;;;23.02;54.96;100017.80;;;;-51
2019/08/05 14:37:09;;;;;;;3.35;3.05;;;;;;;23.02;54.97;100022.42;;;;-53
2019/08/05 14:40:09;;;;;;;3.32;2.98;;;;;;;23.02;55.20;100024.20;;;;-50
2019/08/05 14:43:09;;;;;;;4.71;3.00;;;;;;;23.04;55.29;100023.95;;;;-59
2019/08/05 14:46:09;;;;;;;3.63;2.87;;;;;;;23.06;55.31;100028.41;;;;-59
2019/08/05 14:49:09;;;;;;;3.60;2.90;;;;;;;23.07;55.43;100032.38;;;;-51
2019/08/05 14:52:09;;;;;;;3.62;2.83;;;;;;;23.08;55.54;100020.97;;;;-50
2019/08/05 14:55:09;;;;;;;6.65;3.11;;;;;;;23.10;55.60;100026.14;;;;-59
2019/08/05 14:58:09;;;;;;;4.20;2.80;;;;;;;23.12;55.67;100024.50;;;;-62
2019/08/05 15:01:09;;;;;;;3.09;2.79;;;;;;;23.13;55.69;100017.45;;;;-57
2019/08/05 15:04:09;;;;;;;4.45;2.95;;;;;;;23.14;55.79;100010.09;;;;-59
2019/08/05 15:07:09;;;;;;;4.30;2.91;;;;;;;23.17;55.83;100011.31;;;;-50
2019/08/05 15:10:09;;;;;;;3.93;2.86;;;;;;;23.17;55.81;100007.53;;;;-54
2019/08/05 15:13:09;;;;;;;4.79;2.81;;;;;;;23.18;55.77;100007.39;;;;-59
2019/08/05 15:16:09;;;;;;;3.46;2.90;;;;;;;23.19;55.77;100013.64;;;;-58
2019/08/05 15:19:09;;;;;;;5.11;2.99;;;;;;;23.20;55.77;100008.11;;;;-56
2019/08/05 15:22:09;;;;;;;4.05;3.01;;;;;;;23.22;55.79;100000.47;;;;-60
2019/08/05 15:25:09;;;;;;;5.45;3.00;;;;;;;23.22;55.81;99998.03;;;;-50
2019/08/05 15:28:09;;;;;;;3.09;2.79;;;;;;;23.22;55.66;99994.83;;;;-50
2019/08/05 15:31:09;;;;;;;3.25;2.82;;;;;;;23.23;55.70;99997.12;;;;-52
2019/08/05 15:34:09;;;;;;;3.57;2.68;;;;;;;23.25;55.85;99996.31;;;;-51
2019/08/05 15:37:09;;;;;;;8.89;3.11;;;;;;;23.25;55.82;99996.08;;;;-52
2019/08/05 15:40:09;;;;;;;6.57;3.15;;;;;;;23.28;55.81;99999.42;;;;-59
2019/08/05 15:43:09;;;;;;;4.59;2.85;;;;;;;23.29;55.85;99997.15;;;;-61
2019/08/05 15:46:09;;;;;;;8.47;3.15;;;;;;;23.30;55.94;99998.95;;;;-53
2019/08/05 15:49:09;;;;;;;6.92;3.06;;;;;;;23.31;55.81;99999.08;;;;-53
2019/08/05 15:52:09;;;;;;;5.51;2.83;;;;;;;23.31;55.83;99998.12;;;;-52
2019/08/05 15:55:09;;;;;;;4.40;2.90;;;;;;;23.32;55.91;99997.31;;;;-51
2019/08/05 15:58:09;;;;;;;4.49;3.22;;;;;;;23.34;55.95;100007.53;;;;-59
2019/08/05 16:01:09;;;;;;;4.57;2.84;;;;;;;23.35;55.84;100001.25;;;;-60
2019/08/05 16:04:09;;;;;;;16.50;3.41;;;;;;;23.36;55.97;100004.88;;;;-58
2019/08/05 16:07:09;;;;;;;17.69;3.75;;;;;;;23.36;56.09;100004.58;;;;-59
2019/08/05 16:10:09;;;;;;;9.70;2.99;;;;;;;23.37;56.25;100007.69;;;;-59
2019/08/05 16:13:09;;;;;;;12.03;3.59;;;;;;;23.38;56.26;100006.03;;;;-59
2019/08/05 16:16:09;;;;;;;11.64;3.28;;;;;;;23.39;56.06;100002.75;;;;-57
2019/08/05 16:19:09;;;;;;;10.39;3.44;;;;;;;23.39;55.93;100005.20;;;;-54
2019/08/05 16:22:09;;;;;;;8.72;3.39;;;;;;;23.40;55.97;100004.89;;;;-52
2019/08/05 16:25:09;;;;;;;10.55;3.30;;;;;;;23.41;56.04;99999.45;;;;-53
2019/08/05 16:28:36;;;;;;;9.74;3.39;;;;;;;23.42;55.95;100000.63;;;;-58
2019/08/05 16:31:09;;;;;;;10.83;3.13;;;;;;;23.43;56.13;100002.60;;;;-54
2019/08/05 16:34:09;;;;;;;7.81;3.33;;;;;;;23.44;56.04;100006.05;;;;-52
2019/08/05 16:37:09;;;;;;;6.93;3.05;;;;;;;23.44;56.03;100001.27;;;;-57
2019/08/05 16:40:09;;;;;;;9.00;3.49;;;;;;;23.45;56.02;100003.22;;;;-53
2019/08/05 16:43:09;;;;;;;9.05;3.28;;;;;;;23.44;55.93;100001.77;;;;-52
2019/08/05 16:46:09;;;;;;;7.05;3.19;;;;;;;23.45;55.94;100005.58;;;;-52
2019/08/05 16:49:09;;;;;;;4.86;2.94;;;;;;;23.45;56.08;100004.66;;;;-51
2019/08/05 16:52:09;;;;;;;7.98;3.55;;;;;;;23.47;55.98;100011.18;;;;-57
2019/08/05 16:55:09;;;;;;;7.45;3.42;;;;;;;23.47;56.00;100015.66;;;;-52